createdAt,value
2019-04-25T00:01:08.805Z,14.16
2019-04-25T00:03:39.352Z,14.14
2019-04-25T00:06:10.116Z,14.06
2019-04-25T00:08:41.307Z,14.05
2019-04-25T00:11:12.452Z,14.03
2019-04-25T00:13:43.146Z,14.00
2019-04-25T00:16:15.601Z,14.01
2019-04-25T00:18:46.326Z,13.92
2019-04-25T00:21:26.569Z,13.87
2019-04-25T00:24:02.532Z,13.71
2019-04-25T00:26:38.300Z,13.72
2019-04-25T00:29:08.304Z,13.73
2019-04-25T00:31:38.553Z,13.74
2019-04-25T00:34:09.159Z,13.72
2019-04-25T00:36:40.710Z,13.66
2019-04-25T00:39:11.945Z,13.68
2019-04-25T00:41:44.328Z,13.62
2019-04-25T00:44:18.779Z,13.59
2019-04-25T00:46:52.482Z,13.57
2019-04-25T00:49:22.020Z,13.56
2019-04-25T00:51:53.197Z,13.58
2019-04-25T00:54:23.232Z,13.58
2019-04-25T00:56:53.858Z,13.61
2019-04-25T00:59:38.019Z,13.66
2019-04-25T01:02:26.490Z,13.66
2019-04-25T01:04:56.450Z,13.67
2019-04-25T01:07:26.432Z,13.65
2019-04-25T01:09:56.341Z,13.59
2019-04-25T01:12:26.339Z,13.60
2019-04-25T01:14:56.635Z,13.56
2019-04-25T01:17:26.555Z,13.60
2019-04-25T01:19:58.007Z,13.58
2019-04-25T01:22:28.097Z,13.56
2019-04-25T01:24:58.083Z,13.48
2019-04-25T01:27:28.004Z,13.35
2019-04-25T01:29:57.987Z,13.42
2019-04-25T01:32:33.622Z,13.47
2019-04-25T01:35:14.921Z,13.49
2019-04-25T01:38:09.822Z,13.49
2019-04-25T01:41:03.339Z,13.47
2019-04-25T01:43:47.393Z,13.50
2019-04-25T01:46:18.648Z,13.47
2019-04-25T01:48:48.661Z,13.46
2019-04-25T01:51:18.617Z,13.49
2019-04-25T01:53:49.099Z,13.51
2019-04-25T01:56:20.051Z,13.53
2019-04-25T01:58:50.006Z,13.53
2019-04-25T02:01:19.975Z,13.49
2019-04-25T02:03:50.424Z,13.49
2019-04-25T02:06:21.164Z,13.45
2019-04-25T02:08:51.708Z,13.39
2019-04-25T02:11:43.927Z,13.38
2019-04-25T02:14:13.973Z,13.38
2019-04-25T02:16:44.137Z,13.36
2019-04-25T02:19:14.552Z,13.39
2019-04-25T02:21:45.790Z,13.41
2019-04-25T02:24:16.092Z,13.43
2019-04-25T02:26:47.539Z,13.45
2019-04-25T02:29:17.835Z,13.44
2019-04-25T02:31:47.850Z,13.40
2019-04-25T02:34:18.529Z,13.38
2019-04-25T02:36:48.874Z,13.40
2019-04-25T02:39:20.958Z,13.42
2019-04-25T02:41:50.922Z,13.37
2019-04-25T02:44:20.877Z,13.33
2019-04-25T02:47:08.622Z,13.34
2019-04-25T02:50:09.067Z,13.33
2019-04-25T02:52:41.580Z,13.36
2019-04-25T02:55:28.868Z,13.35
2019-04-25T02:57:45.017Z,13.31
2019-04-25T03:00:25.943Z,13.27
2019-04-25T03:02:57.899Z,13.26
2019-04-25T03:05:28.159Z,13.25
2019-04-25T03:07:59.777Z,13.13
2019-04-25T03:10:29.968Z,13.15
2019-04-25T03:13:00.683Z,13.16
2019-04-25T03:15:34.197Z,13.18
2019-04-25T03:18:05.658Z,13.18
2019-04-25T03:20:45.288Z,13.18
2019-04-25T03:23:35.546Z,13.21
2019-04-25T03:26:06.598Z,13.20
2019-04-25T03:28:37.328Z,13.14
2019-04-25T03:31:15.287Z,13.06
2019-04-25T03:33:39.555Z,13.03
2019-04-25T03:36:09.551Z,13.02
2019-04-25T03:38:39.532Z,13.07
2019-04-25T03:41:10.358Z,13.07
2019-04-25T03:43:40.461Z,13.05
2019-04-25T03:46:10.674Z,13.07
2019-04-25T03:48:40.623Z,13.09
2019-04-25T03:51:10.560Z,13.08
2019-04-25T03:53:40.855Z,13.07
2019-04-25T03:56:10.791Z,13.04
2019-04-25T03:58:40.682Z,13.03
2019-04-25T04:01:10.993Z,13.04
2019-04-25T04:03:41.005Z,13.07
2019-04-25T04:06:11.638Z,13.07
2019-04-25T04:08:41.640Z,13.08
2019-04-25T04:11:12.129Z,13.09
2019-04-25T04:13:44.079Z,13.10
2019-04-25T04:16:16.392Z,13.12
2019-04-25T04:18:49.371Z,13.11
2019-04-25T04:21:25.824Z,13.12
2019-04-25T04:24:20.568Z,13.07
2019-04-25T04:27:27.991Z,13.07
2019-04-25T04:29:57.863Z,13.04
2019-04-25T04:32:27.727Z,13.06
2019-04-25T04:34:57.773Z,13.07
2019-04-25T04:37:28.780Z,13.06
2019-04-25T04:39:58.753Z,13.03
2019-04-25T04:42:28.683Z,13.04
2019-04-25T04:45:00.103Z,13.04
2019-04-25T04:47:30.335Z,13.05
2019-04-25T04:50:01.265Z,12.95
2019-04-25T04:52:31.054Z,12.98
2019-04-25T04:55:06.415Z,12.93
2019-04-25T04:57:35.800Z,12.99
2019-04-25T05:00:04.423Z,13.02
2019-04-25T05:02:43.924Z,13.07
2019-04-25T05:05:40.015Z,13.12
2019-04-25T05:08:24.799Z,13.15
2019-04-25T05:10:57.122Z,13.20
2019-04-25T05:13:25.813Z,13.23
2019-04-25T05:15:55.773Z,13.25
2019-04-25T05:18:37.567Z,13.24
2019-04-25T05:20:57.640Z,13.26
2019-04-25T05:23:27.439Z,13.25
2019-04-25T05:25:57.684Z,13.20
2019-04-25T05:28:27.920Z,13.22
2019-04-25T05:31:17.249Z,13.21
2019-04-25T05:33:47.749Z,13.25
2019-04-25T05:36:18.549Z,13.34
2019-04-25T05:38:48.538Z,13.36
2019-04-25T05:41:57.097Z,13.37
2019-04-25T05:44:27.465Z,13.41
2019-04-25T05:46:58.447Z,13.45
2019-04-25T05:49:28.678Z,13.46
2019-04-25T05:51:58.548Z,13.48
2019-04-25T05:54:28.721Z,13.53
2019-04-25T05:56:59.038Z,13.57
2019-04-25T05:59:29.297Z,13.60
2019-04-25T06:01:59.323Z,13.62
2019-04-25T06:04:29.254Z,13.61
2019-04-25T06:06:59.120Z,13.57
2019-04-25T06:09:54.775Z,13.59
2019-04-25T06:12:45.159Z,13.66
2019-04-25T06:15:15.354Z,13.70
2019-04-25T06:18:24.796Z,13.72
2019-04-25T06:20:55.565Z,13.75
2019-04-25T06:23:45.741Z,13.84
2019-04-25T06:26:22.862Z,13.86
2019-04-25T06:28:53.634Z,13.91
2019-04-25T06:31:19.905Z,13.96
2019-04-25T06:33:49.933Z,14.00
2019-04-25T06:36:20.312Z,14.04
2019-04-25T06:38:51.131Z,14.06
2019-04-25T06:41:21.926Z,14.09
2019-04-25T06:43:54.169Z,14.15
2019-04-25T06:46:49.561Z,14.18
2019-04-25T06:49:26.854Z,14.22
2019-04-25T06:51:58.852Z,14.26
2019-04-25T06:54:29.547Z,14.34
2019-04-25T06:56:58.650Z,14.36
2019-04-25T06:59:28.868Z,14.38
2019-04-25T07:01:59.175Z,14.42
2019-04-25T07:04:29.273Z,14.44
2019-04-25T07:07:09.677Z,14.46
2019-04-25T07:09:31.481Z,14.51
2019-04-25T07:12:03.616Z,14.55
2019-04-25T07:14:36.672Z,14.58
2019-04-25T07:17:05.621Z,14.64
2019-04-25T07:19:36.475Z,14.64
2019-04-25T07:22:06.456Z,14.68
2019-04-25T07:24:36.416Z,14.74
2019-04-25T07:27:41.449Z,14.76
2019-04-25T07:30:43.815Z,14.80
2019-04-25T07:33:08.326Z,14.90
2019-04-25T07:35:38.317Z,14.93
2019-04-25T07:38:08.224Z,14.95
2019-04-25T07:40:38.367Z,14.98
2019-04-25T07:43:08.352Z,14.99
2019-04-25T07:45:38.343Z,15.03
2019-04-25T07:48:08.292Z,15.09
2019-04-25T07:50:38.235Z,15.13
2019-04-25T07:53:08.209Z,15.17
2019-04-25T07:55:38.822Z,15.17
2019-04-25T07:58:08.912Z,15.22
2019-04-25T08:00:38.851Z,15.23
2019-04-25T08:03:08.775Z,15.23
2019-04-25T08:05:39.043Z,15.27
2019-04-25T08:08:09.382Z,15.30
2019-04-25T08:10:57.964Z,15.32
2019-04-25T08:13:30.103Z,15.39
2019-04-25T08:16:00.733Z,15.43
2019-04-25T08:18:31.063Z,15.45
2019-04-25T08:21:03.245Z,15.50
2019-04-25T08:23:36.661Z,15.51
2019-04-25T08:26:05.454Z,15.54
2019-04-25T08:28:48.851Z,15.54
2019-04-25T08:31:07.061Z,15.57
2019-04-25T08:33:36.873Z,15.63
2019-04-25T08:36:09.314Z,15.69
2019-04-25T08:38:38.789Z,15.76
2019-04-25T08:41:07.750Z,15.86
2019-04-25T08:43:39.086Z,15.92
2019-04-25T08:46:08.350Z,15.97
2019-04-25T08:48:56.193Z,16.04
2019-04-25T08:51:29.295Z,16.11
2019-04-25T08:54:21.315Z,16.23
2019-04-25T08:56:53.117Z,16.27
2019-04-25T08:59:49.419Z,16.32
2019-04-25T09:02:38.418Z,16.36
2019-04-25T09:05:29.305Z,16.38
2019-04-25T09:07:59.615Z,16.41
2019-04-25T09:10:29.588Z,16.42
2019-04-25T09:12:59.927Z,16.43
2019-04-25T09:15:30.473Z,16.44
2019-04-25T09:18:04.691Z,16.44
2019-04-25T09:20:40.260Z,16.44
2019-04-25T09:23:08.096Z,16.47
2019-04-25T09:25:38.655Z,16.48
2019-04-25T09:28:08.766Z,16.49
2019-04-25T09:30:38.710Z,16.48
2019-04-25T09:33:08.586Z,16.49
2019-04-25T09:35:39.521Z,16.50
2019-04-25T09:38:09.493Z,16.52
2019-04-25T09:40:39.562Z,16.56
2019-04-25T09:43:09.572Z,16.58
2019-04-25T09:45:49.621Z,16.58
2019-04-25T09:48:54.290Z,16.59
2019-04-25T09:51:31.104Z,16.64
2019-04-25T09:54:29.533Z,16.73
2019-04-25T09:57:07.188Z,16.82
2019-04-25T09:59:37.505Z,16.88
2019-04-25T10:02:08.967Z,16.97
2019-04-25T10:04:39.824Z,17.05
2019-04-25T10:07:11.094Z,17.14
2019-04-25T10:09:40.992Z,17.25
2019-04-25T10:12:10.948Z,17.32
2019-04-25T10:15:16.123Z,17.40
2019-04-25T10:17:46.293Z,17.48
2019-04-25T10:20:18.529Z,17.58
2019-04-25T10:22:48.581Z,17.65
2019-04-25T10:25:18.689Z,17.70
2019-04-25T10:27:49.350Z,17.77
2019-04-25T10:30:23.395Z,17.84
2019-04-25T10:32:51.696Z,17.95
2019-04-25T10:35:21.799Z,18.10
2019-04-25T10:37:53.709Z,18.25
2019-04-25T10:40:25.106Z,18.38
2019-04-25T10:42:55.217Z,18.53
2019-04-25T10:45:26.338Z,18.71
2019-04-25T10:47:56.674Z,18.89
2019-04-25T10:50:26.608Z,19.05
2019-04-25T10:52:56.553Z,19.19
2019-04-25T10:55:26.542Z,19.32
2019-04-25T10:57:56.489Z,19.46
2019-04-25T11:00:33.937Z,19.50
2019-04-25T11:03:26.813Z,19.48
2019-04-25T11:05:57.356Z,19.46
2019-04-25T11:08:27.298Z,19.40
2019-04-25T11:10:58.427Z,19.34
2019-04-25T11:13:28.554Z,19.32
2019-04-25T11:15:58.736Z,19.30
2019-04-25T11:18:28.606Z,19.29
2019-04-25T11:20:59.245Z,19.26
2019-04-25T11:23:30.288Z,19.26
2019-04-25T11:26:00.244Z,19.25
2019-04-25T11:28:30.299Z,19.28
2019-04-25T11:31:00.336Z,19.29
2019-04-25T11:33:30.858Z,19.30
2019-04-25T11:36:01.144Z,19.32
2019-04-25T11:38:47.367Z,19.33
2019-04-25T11:41:18.126Z,19.35
2019-04-25T11:43:48.717Z,19.47
2019-04-25T11:46:18.770Z,19.60
2019-04-25T11:48:48.649Z,19.74
2019-04-25T11:51:18.634Z,19.83
2019-04-25T11:53:48.572Z,19.93
2019-04-25T11:56:18.762Z,20.08
2019-04-25T11:58:48.986Z,20.31
2019-04-25T12:01:20.688Z,20.54
2019-04-25T12:03:50.984Z,20.73
2019-04-25T12:06:20.955Z,20.91
2019-04-25T12:08:51.473Z,21.07
2019-04-25T12:11:21.583Z,21.23
2019-04-25T12:13:54.201Z,21.42
2019-04-25T12:16:25.821Z,21.63
2019-04-25T12:18:56.492Z,21.81
2019-04-25T12:21:26.539Z,22.00
2019-04-25T12:23:56.515Z,22.05
2019-04-25T12:26:26.450Z,22.07
2019-04-25T12:28:56.698Z,22.16
2019-04-25T12:31:26.761Z,22.27
2019-04-25T12:33:57.657Z,22.35
2019-04-25T12:36:27.686Z,22.57
2019-04-25T12:38:57.599Z,22.57
2019-04-25T12:41:27.563Z,22.41
2019-04-25T12:44:11.308Z,22.41
2019-04-25T12:46:45.921Z,22.28
2019-04-25T12:49:16.213Z,22.15
2019-04-25T12:51:46.524Z,21.95
2019-04-25T12:54:16.516Z,21.89
2019-04-25T12:56:49.201Z,21.89
2019-04-25T12:59:19.192Z,21.83
2019-04-25T13:01:49.531Z,21.71
2019-04-25T13:04:19.473Z,21.79
2019-04-25T13:06:50.472Z,21.70
2019-04-25T13:09:20.488Z,21.70
2019-04-25T13:11:50.456Z,21.63
2019-04-25T13:14:20.345Z,21.66
2019-04-25T13:16:50.324Z,21.71
2019-04-25T13:19:24.150Z,21.78
2019-04-25T13:21:54.335Z,21.81
2019-04-25T13:24:25.555Z,22.23
2019-04-25T13:27:01.632Z,22.23
2019-04-25T13:29:53.611Z,22.49
2019-04-25T13:32:33.418Z,22.53
2019-04-25T13:35:06.998Z,22.48
2019-04-25T13:37:38.338Z,22.23
2019-04-25T13:40:08.572Z,22.23
2019-04-25T13:42:38.572Z,22.06
2019-04-25T13:45:08.948Z,21.99
2019-04-25T13:47:38.857Z,21.92
2019-04-25T13:50:10.959Z,21.87
2019-04-25T13:52:40.753Z,21.79
2019-04-25T13:55:11.079Z,21.75
2019-04-25T13:57:42.339Z,22.02
2019-04-25T14:00:14.130Z,22.30
2019-04-25T14:02:44.955Z,22.54
2019-04-25T14:05:16.675Z,22.72
2019-04-25T14:07:46.667Z,22.88
2019-04-25T14:10:16.876Z,22.86
2019-04-25T14:12:47.024Z,22.78
2019-04-25T14:15:19.181Z,22.68
2019-04-25T14:18:20.321Z,22.65
2019-04-25T14:20:58.358Z,22.52
2019-04-25T14:23:28.280Z,22.52
2019-04-25T14:25:58.374Z,22.38
2019-04-25T14:28:30.542Z,22.27
2019-04-25T14:31:01.636Z,22.18
2019-04-25T14:33:31.552Z,22.06
2019-04-25T14:36:03.178Z,21.96
2019-04-25T14:38:35.476Z,21.83
2019-04-25T14:41:09.009Z,21.67
2019-04-25T14:43:39.029Z,21.59
2019-04-25T14:46:08.916Z,21.51
2019-04-25T14:48:38.846Z,21.42
2019-04-25T14:51:10.845Z,21.36
2019-04-25T14:53:41.006Z,21.31
2019-04-25T14:56:40.628Z,21.27
2019-04-25T14:59:10.764Z,21.22
2019-04-25T15:01:44.837Z,21.19
2019-04-25T15:04:12.793Z,21.18
2019-04-25T15:06:42.674Z,21.20
2019-04-25T15:09:12.635Z,21.21
2019-04-25T15:11:42.591Z,21.21
2019-04-25T15:14:12.534Z,21.18
2019-04-25T15:16:43.222Z,21.19
2019-04-25T15:19:13.495Z,21.08
2019-04-25T15:21:43.320Z,21.08
2019-04-25T15:24:13.324Z,21.10
2019-04-25T15:26:43.227Z,21.08
2019-04-25T15:29:13.128Z,21.08
2019-04-25T15:31:55.234Z,21.05
2019-04-25T15:34:14.651Z,21.01
2019-04-25T15:36:50.969Z,20.99
2019-04-25T15:39:39.927Z,20.97
2019-04-25T15:42:31.969Z,20.98
2019-04-25T15:45:15.887Z,21.00
2019-04-25T15:47:45.899Z,20.97
2019-04-25T15:50:15.939Z,20.95
2019-04-25T15:52:46.170Z,20.96
2019-04-25T15:55:16.470Z,20.96
2019-04-25T15:57:46.515Z,20.94
2019-04-25T16:00:21.687Z,20.87
2019-04-25T16:02:52.916Z,20.87
2019-04-25T16:05:22.906Z,20.82
2019-04-25T16:07:53.135Z,20.77
2019-04-25T16:10:23.920Z,20.74
2019-04-25T16:12:53.855Z,20.71
2019-04-25T16:15:23.743Z,20.68
2019-04-25T16:17:53.701Z,20.65
2019-04-25T16:20:24.105Z,20.59
2019-04-25T16:22:53.963Z,20.50
2019-04-25T16:25:24.096Z,20.50
2019-04-25T16:27:54.375Z,20.45
2019-04-25T16:30:28.403Z,20.29
2019-04-25T16:32:58.727Z,20.12
2019-04-25T16:35:29.749Z,20.00
2019-04-25T16:37:59.882Z,19.88
2019-04-25T16:40:30.110Z,19.78
2019-04-25T16:43:04.326Z,19.69
2019-04-25T16:45:35.738Z,19.60
2019-04-25T16:48:05.689Z,19.56
2019-04-25T16:50:36.504Z,19.52
2019-04-25T16:53:06.850Z,19.48
2019-04-25T16:55:38.804Z,19.43
2019-04-25T16:58:08.929Z,19.37
2019-04-25T17:00:49.619Z,19.30
2019-04-25T17:03:22.187Z,19.25
2019-04-25T17:05:52.153Z,19.26
2019-04-25T17:08:23.256Z,19.19
2019-04-25T17:10:53.192Z,19.11
2019-04-25T17:13:24.037Z,18.99
2019-04-25T17:16:06.360Z,18.95
2019-04-25T17:18:42.674Z,18.99
2019-04-25T17:21:12.639Z,18.94
2019-04-25T17:23:43.482Z,18.92
2019-04-25T17:26:14.029Z,18.89
2019-04-25T17:28:45.707Z,18.86
2019-04-25T17:31:37.627Z,18.82
2019-04-25T17:34:18.500Z,18.80
2019-04-25T17:37:13.718Z,18.74
2019-04-25T17:39:47.431Z,18.63
2019-04-25T17:42:17.270Z,18.61
2019-04-25T17:44:47.297Z,18.50
2019-04-25T17:47:17.267Z,18.40
2019-04-25T17:49:47.401Z,18.38
2019-04-25T17:52:17.463Z,18.35
2019-04-25T17:54:47.952Z,18.32
2019-04-25T17:57:17.990Z,18.24
2019-04-25T17:59:47.883Z,18.26
2019-04-25T18:02:17.904Z,18.12
2019-04-25T18:04:48.188Z,18.06
2019-04-25T18:07:18.274Z,17.97
2019-04-25T18:09:48.451Z,17.93
2019-04-25T18:12:18.614Z,17.85
2019-04-25T18:14:48.573Z,17.88
2019-04-25T18:17:18.890Z,17.91
2019-04-25T18:20:02.759Z,17.87
2019-04-25T18:22:57.985Z,17.79
2019-04-25T18:25:45.736Z,17.74
2019-04-25T18:28:19.678Z,17.66
2019-04-25T18:30:49.973Z,17.66
2019-04-25T18:33:29.820Z,17.63
2019-04-25T18:36:18.848Z,17.52
2019-04-25T18:38:56.418Z,17.51
2019-04-25T18:41:31.693Z,17.43
2019-04-25T18:44:03.074Z,17.47
2019-04-25T18:46:38.354Z,17.48
2019-04-25T18:49:08.409Z,17.43
2019-04-25T18:51:38.559Z,17.48
2019-04-25T18:54:46.128Z,17.40
2019-04-25T18:57:30.357Z,17.32
2019-04-25T19:00:32.076Z,17.33
2019-04-25T19:03:22.018Z,17.33
2019-04-25T19:05:51.627Z,17.20
2019-04-25T19:08:21.650Z,17.08
2019-04-25T19:10:51.884Z,17.08
2019-04-25T19:13:22.149Z,17.03
2019-04-25T19:15:52.122Z,16.86
2019-04-25T19:18:21.984Z,16.68
2019-04-25T19:20:52.352Z,16.67
2019-04-25T19:23:22.623Z,16.52
2019-04-25T19:25:52.927Z,16.47
2019-04-25T19:28:23.147Z,16.45
2019-04-25T19:30:53.375Z,16.49
2019-04-25T19:33:34.997Z,16.45
2019-04-25T19:35:56.506Z,16.43
2019-04-25T19:38:26.477Z,16.48
2019-04-25T19:41:11.535Z,16.44
2019-04-25T19:43:59.044Z,16.51
2019-04-25T19:46:38.521Z,16.57
2019-04-25T19:49:08.695Z,16.63
2019-04-25T19:51:38.663Z,16.64
2019-04-25T19:54:08.620Z,16.69
2019-04-25T19:56:39.040Z,16.74
2019-04-25T19:59:09.168Z,16.73
2019-04-25T20:01:40.526Z,16.64
2019-04-25T20:04:22.555Z,16.67
2019-04-25T20:07:10.660Z,16.71
2019-04-25T20:09:57.838Z,16.73
2019-04-25T20:12:31.495Z,16.77
2019-04-25T20:15:01.440Z,16.75
2019-04-25T20:17:32.653Z,16.73
2019-04-25T20:20:02.458Z,16.71
2019-04-25T20:22:32.494Z,16.72
2019-04-25T20:25:02.495Z,16.72
2019-04-25T20:27:32.702Z,16.75
2019-04-25T20:30:02.707Z,16.72
2019-04-25T20:32:34.238Z,16.71
2019-04-25T20:35:04.215Z,16.68
2019-04-25T20:37:34.187Z,16.66
2019-04-25T20:40:04.969Z,16.69
2019-04-25T20:42:34.937Z,16.69
2019-04-25T20:45:05.670Z,16.67
2019-04-25T20:47:35.690Z,16.68
2019-04-25T20:50:06.383Z,16.67
2019-04-25T20:52:38.189Z,16.64
2019-04-25T20:55:09.598Z,16.59
2019-04-25T20:57:40.035Z,16.56
2019-04-25T21:00:11.161Z,16.54
2019-04-25T21:02:41.449Z,16.56
2019-04-25T21:05:11.387Z,16.56
2019-04-25T21:07:41.673Z,16.53
2019-04-25T21:10:12.974Z,16.50
2019-04-25T21:12:42.890Z,16.50
2019-04-25T21:15:30.932Z,16.47
2019-04-25T21:18:23.282Z,16.44
2019-04-25T21:20:55.023Z,16.40
2019-04-25T21:23:25.040Z,16.36
2019-04-25T21:25:55.009Z,16.31
2019-04-25T21:28:24.990Z,16.17
2019-04-25T21:30:54.931Z,16.08
2019-04-25T21:33:24.739Z,16.04
2019-04-25T21:35:55.518Z,16.01
2019-04-25T21:38:26.799Z,16.02
2019-04-25T21:41:14.826Z,16.05
2019-04-25T21:43:51.891Z,16.04
2019-04-25T21:46:23.149Z,16.02
2019-04-25T21:48:53.520Z,15.96
2019-04-25T21:51:32.982Z,15.97
2019-04-25T21:54:03.722Z,15.98
2019-04-25T21:56:33.997Z,15.95
2019-04-25T21:59:05.310Z,15.87
2019-04-25T22:01:39.132Z,15.88
2019-04-25T22:04:09.540Z,15.91
2019-04-25T22:06:40.330Z,15.95
2019-04-25T22:09:15.659Z,15.94
2019-04-25T22:11:46.075Z,15.90
2019-04-25T22:14:17.070Z,15.94
2019-04-25T22:16:47.330Z,15.97
2019-04-25T22:19:17.619Z,15.95
2019-04-25T22:21:47.913Z,15.93
2019-04-25T22:24:17.875Z,15.88
2019-04-25T22:26:50.047Z,15.88
2019-04-25T22:29:20.015Z,15.81
2019-04-25T22:31:59.343Z,15.78
2019-04-25T22:34:37.586Z,15.78
2019-04-25T22:37:08.307Z,15.83
2019-04-25T22:39:38.676Z,15.86
2019-04-25T22:42:08.615Z,15.88
2019-04-25T22:44:38.835Z,15.90
2019-04-25T22:47:09.038Z,15.89
2019-04-25T22:49:38.896Z,15.88
2019-04-25T22:52:09.187Z,15.89
2019-04-25T22:54:39.502Z,15.89
2019-04-25T22:57:09.483Z,15.87
2019-04-25T22:59:40.031Z,15.86
2019-04-25T23:02:34.633Z,15.85
2019-04-25T23:05:18.536Z,15.78
2019-04-25T23:07:48.388Z,15.72
2019-04-25T23:10:18.585Z,15.71
2019-04-25T23:12:48.525Z,15.71
2019-04-25T23:15:18.522Z,15.70
2019-04-25T23:17:48.596Z,15.68
2019-04-25T23:20:20.303Z,15.68
2019-04-25T23:22:50.181Z,15.65
2019-04-25T23:25:24.922Z,15.64
2019-04-25T23:28:03.624Z,15.64
2019-04-25T23:30:54.142Z,15.66
2019-04-25T23:33:24.040Z,15.64
2019-04-25T23:35:54.312Z,15.64
2019-04-25T23:38:24.293Z,15.64
2019-04-25T23:40:54.450Z,15.64
2019-04-25T23:43:24.659Z,15.62
2019-04-25T23:45:54.954Z,15.62
2019-04-25T23:48:25.149Z,15.60
2019-04-25T23:50:55.036Z,15.55
2019-04-25T23:53:24.978Z,15.52
2019-04-25T23:55:55.260Z,15.53
2019-04-25T23:58:25.229Z,15.52
